Search for airport 
image banner adimage banner adimage banner ad
image banner ad

SCNL - Villa Cerro Castillo

Located in Villa Cerro Castillo, Chile

ICAO - , IATA -

Data provided by Airmate  

General information

Coordinates: S46°7'48" W72°8'47"
Elevation is feet MSL.
Magnetic variation is 10° East
View others Airports in Aisén del General Carlos Ibañez

Operational data

Special qualification required
Current time UTC:
Current local time:
Weather at : SCBA - Balmaceda ( 43 km )
METAR: SCBA 052200Z 00000KT CAVOK 05/M02 Q1025
TAF: TAF SCBA 052235Z 0600/0700 VRB02KT CAVOK TNM03/0611Z TX12/0619Z PROB30 TEMPO 0607/0612 0500 FZFG OVC002 BECMG 0618/0620 11006KT
View NOTAMs / SUP AIP / TFR affecting this airport [VIEW]
Communications frequencies: [VIEW]

Runways:

RWY identifierQFULength (ft)Width (ft)SurfaceLDA (ft)
0895°246150DIRT
26275°246150DIRT

Airport contact information

Address: Villa Cerro Castillo Chile

Satellite view of SCNL